Time;durP1;ratioP1;P1;durP2;ratioP2;P2;SDS_P1;SDS_P2;PMS_P1;PMS_P2;Temp;Humidity;BMP_temperature;BMP_pressure;BME280_temperature;BME280_humidity;BME280_pressure;Samples;Min_cycle;Max_cycle;Signal;HPM_P1;HPM_P2
2023/05/29 00:01:18;;;;;;;4.75;4.00;;;14.60;99.90;;;-141.84;48.45;20590.28;5071420;28;20272;-69
2023/05/29 00:03:46;;;;;;;5.13;4.03;;;14.40;99.90;;;-141.84;49.00;20537.44;5072943;28;20216;-68
2023/05/29 00:06:15;;;;;;;5.70;4.15;;;14.30;99.90;;;-141.84;49.92;20547.59;5072912;28;20213;-68
2023/05/29 00:08:43;;;;;;;7.53;4.75;;;14.20;99.90;;;-141.84;49.07;20567.91;5072705;28;20295;-67
2023/05/29 00:11:11;;;;;;;8.15;4.60;;;14.30;99.90;;;-141.84;49.20;20620.78;5072698;28;20262;-68
2023/05/29 00:13:40;;;;;;;5.53;4.63;;;14.40;99.90;;;-141.84;49.59;20624.84;5072634;28;20207;-69
2023/05/29 00:16:10;;;;;;;5.67;4.53;;;14.40;99.90;;;-141.84;50.33;20569.94;5072304;28;20346;-68
2023/05/29 00:18:44;;;;;;;6.97;4.10;;;14.30;99.90;;;-141.84;51.30;20531.31;5072592;28;20235;-68
2023/05/29 00:21:13;;;;;;;4.97;4.13;;;14.20;99.90;;;-141.84;51.59;20525.22;5072451;28;20850;-68
2023/05/29 00:23:42;;;;;;;6.27;4.27;;;14.10;99.90;;;-141.84;51.78;20496.78;5072475;28;20205;-68
2023/05/29 00:26:13;;;;;;;6.68;4.10;;;14.00;99.90;;;-141.84;51.35;20531.31;5072448;28;20254;-68
2023/05/29 00:28:41;;;;;;;6.00;4.37;;;14.00;99.90;;;-141.84;51.08;20533.34;5072369;28;20295;-68
2023/05/29 00:31:12;;;;;;;5.97;4.10;;;14.00;99.90;;;-141.84;51.26;20569.94;5071750;28;20207;-69
2023/05/29 00:33:41;;;;;;;4.43;3.67;;;14.00;99.90;;;-141.84;51.32;20569.94;5071558;28;20230;-67
2023/05/29 00:36:10;;;;;;;5.47;4.40;;;14.00;99.90;;;-141.84;51.53;20578.09;5071980;28;20256;-69
2023/05/29 00:38:39;;;;;;;5.33;3.90;;;14.00;99.90;;;-141.84;52.22;20527.25;5071789;28;20648;-68
2023/05/29 00:41:07;;;;;;;5.50;4.13;;;13.90;99.90;;;-141.84;52.73;20488.63;5071918;28;20247;-69
2023/05/29 00:43:35;;;;;;;4.45;3.60;;;13.80;99.90;;;-141.84;52.84;20464.25;5070147;28;20283;-69
2023/05/29 00:46:04;;;;;;;6.80;4.20;;;13.70;99.90;;;-141.84;51.73;20466.28;5071663;28;20716;-69
2023/05/29 00:48:34;;;;;;;5.60;3.97;;;13.70;99.90;;;-141.84;51.70;20521.16;5071902;28;20200;-69
2023/05/29 00:51:03;;;;;;;5.60;3.93;;;13.70;99.90;;;-141.84;50.97;20545.56;5072217;28;20189;-68
2023/05/29 00:53:31;;;;;;;6.40;4.00;;;13.80;99.90;;;-141.84;51.31;20458.16;5071596;28;20204;-68
2023/05/29 00:56:00;;;;;;;7.30;4.00;;;13.70;99.90;;;-141.84;51.92;20476.44;5071393;28;20221;-67
2023/05/29 00:58:29;;;;;;;4.53;4.10;;;13.60;99.90;;;-141.84;51.28;20466.28;5071921;28;20208;-68
2023/05/29 01:00:58;;;;;;;5.40;3.80;;;13.60;99.90;;;-141.84;51.20;20486.59;5071582;28;20208;-68
2023/05/29 01:03:28;;;;;;;5.15;3.65;;;13.60;99.90;;;-141.84;51.73;20464.25;5071907;28;20212;-68
2023/05/29 01:05:57;;;;;;;4.87;3.60;;;13.60;99.90;;;-141.84;51.99;20415.47;5071901;28;20193;-67
2023/05/29 01:08:26;;;;;;;4.40;3.50;;;13.50;99.90;;;-141.84;52.57;20411.41;5071140;28;20622;-68
2023/05/29 01:11:05;;;;;;;7.90;4.03;;;13.40;99.90;;;-141.84;53.01;20403.25;5071745;28;20307;-68
2023/05/29 01:13:37;;;;;;;4.63;3.93;;;13.30;99.90;;;-141.84;52.72;20389.03;5071602;28;20256;-67
2023/05/29 01:16:13;;;;;;;5.77;3.70;;;13.20;99.90;;;-141.84;52.75;20401.22;5071308;28;20292;-68
2023/05/29 01:18:50;;;;;;;4.30;3.37;;;13.10;99.90;;;-141.84;53.11;20370.75;5071597;28;20189;-68
2023/05/29 01:21:43;;;;;;;6.87;3.83;;;13.10;99.90;;;-141.84;53.33;20374.81;5071628;28;20185;-68
2023/05/29 01:24:27;;;;;;;5.63;4.20;;;13.10;99.90;;;-141.84;53.79;20382.94;5071575;28;20284;-67
2023/05/29 01:27:01;;;;;;;5.30;4.00;;;13.00;99.90;;;-141.84;53.63;20356.50;5071646;28;20234;-68
2023/05/29 01:29:33;;;;;;;4.60;3.30;;;12.90;99.90;;;-141.84;53.49;20360.59;5071420;28;20658;-69
2023/05/29 01:32:03;;;;;;;5.13;3.40;;;12.90;99.90;;;-141.84;53.33;20397.16;5071160;28;20205;-68
2023/05/29 01:34:31;;;;;;;5.47;3.40;;;12.90;99.90;;;-141.84;53.16;20382.94;5070804;28;20232;-69
2023/05/29 01:36:59;;;;;;;4.60;3.77;;;12.90;99.90;;;-141.84;53.44;20382.94;5071238;28;20311;-69
2023/05/29 01:39:28;;;;;;;5.30;3.70;;;12.90;99.90;;;-141.84;52.62;20411.41;5071196;28;20204;-68
2023/05/29 01:42:00;;;;;;;5.40;3.20;;;12.90;99.90;;;-141.84;53.09;20376.84;5071339;28;20201;-68
2023/05/29 01:44:29;;;;;;;6.63;4.03;;;13.00;99.90;;;-141.84;53.03;20352.44;5071050;28;20192;-68
2023/05/29 01:46:58;;;;;;;5.47;3.57;;;13.00;99.90;;;-141.84;52.80;20405.31;5071193;28;20201;-68
2023/05/29 01:49:29;;;;;;;6.97;3.63;;;13.00;99.90;;;-141.84;52.96;20378.88;5069279;28;20300;-68
2023/05/29 01:51:59;;;;;;;4.60;3.90;;;12.90;99.90;;;-141.84;53.29;20393.09;5071197;28;20220;-67
2023/05/29 01:54:27;;;;;;;3.97;3.43;;;12.90;99.90;;;-141.84;53.64;20354.47;5071178;28;20204;-68
2023/05/29 01:56:57;;;;;;;4.37;3.70;;;12.80;99.90;;;-141.84;53.86;20395.13;5070990;28;20750;-68
2023/05/29 01:59:26;;;;;;;5.43;3.90;;;12.80;99.90;;;-141.84;54.50;20340.25;5070715;28;20693;-67
2023/05/29 02:01:54;;;;;;;5.63;3.80;;;12.70;99.90;;;-141.84;54.61;20313.84;5071061;28;20232;-69
2023/05/29 02:04:22;;;;;;;4.37;3.83;;;12.70;99.90;;;-141.84;55.29;20313.84;5070721;28;20592;-68
2023/05/29 02:06:52;;;;;;;5.87;4.10;;;12.50;99.90;;;-141.84;55.35;20285.38;5071092;28;20576;-69
2023/05/29 02:09:22;;;;;;;6.23;3.93;;;12.50;99.90;;;-141.84;55.42;20287.41;5074957;28;20209;-67
2023/05/29 02:11:51;;;;;;;6.50;4.10;;;12.40;99.90;;;-141.84;55.99;20319.94;5075095;28;20213;-68
2023/05/29 02:14:20;;;;;;;6.23;4.07;;;12.40;99.90;;;-141.84;55.92;20248.78;5074531;28;20201;-68
2023/05/29 02:16:48;;;;;;;6.53;4.17;;;12.40;99.90;;;-141.84;56.07;20252.84;5074598;28;20217;-69
2023/05/29 02:19:18;;;;;;;5.33;4.20;;;12.30;99.90;;;-141.84;55.84;20330.09;5074778;28;20236;-68
2023/05/29 02:21:48;;;;;;;5.37;4.07;;;12.40;99.90;;;-141.84;56.25;20275.22;5074579;28;20657;-68
2023/05/29 02:24:16;;;;;;;6.33;4.00;;;12.30;99.90;;;-141.84;56.70;20277.25;5074271;28;20181;-68
2023/05/29 02:26:44;;;;;;;7.23;4.20;;;12.30;99.90;;;-141.84;56.70;20260.97;5074571;28;20228;-68
2023/05/29 02:29:13;;;;;;;4.83;4.10;;;12.30;99.90;;;-141.84;57.10;20228.47;5074622;28;20255;-69
2023/05/29 02:31:42;;;;;;;6.60;3.77;;;12.20;99.90;;;-141.84;57.19;20228.47;5074286;28;20254;-68
2023/05/29 02:34:10;;;;;;;6.43;4.07;;;12.20;99.90;;;-141.84;57.13;20258.94;5074096;28;20237;-68
2023/05/29 02:36:39;;;;;;;6.40;4.70;;;12.20;99.90;;;-141.84;56.79;20285.38;5074414;28;20257;-68
2023/05/29 02:39:07;;;;;;;5.37;4.07;;;12.20;99.90;;;-141.84;57.05;20242.69;5074294;28;20243;-68
2023/05/29 02:41:36;;;;;;;7.63;4.17;;;12.20;99.90;;;-141.84;56.60;20277.25;5074319;28;20284;-68
2023/05/29 02:44:04;;;;;;;5.97;4.13;;;12.20;99.90;;;-141.84;57.36;20250.81;5074316;28;20299;-68
2023/05/29 02:46:33;;;;;;;5.47;4.23;;;12.20;99.90;;;-141.84;57.66;20246.75;5073726;28;20263;-69
2023/05/29 02:49:03;;;;;;;6.57;4.47;;;12.10;99.90;;;-141.84;57.27;20260.97;5074198;28;20229;-68
2023/05/29 02:51:32;;;;;;;5.10;4.60;;;12.10;99.90;;;-141.84;57.79;20240.66;5074383;28;20606;-68
2023/05/29 02:54:00;;;;;;;5.77;4.20;;;12.00;99.90;;;-141.84;57.51;20216.25;5074101;28;20247;-68
2023/05/29 02:56:29;;;;;;;5.13;4.10;;;12.00;99.90;;;-141.84;58.23;20200.00;5073852;28;20224;-68
2023/05/29 02:58:57;;;;;;;5.13;4.13;;;11.90;99.90;;;-141.84;58.24;20200.00;5073970;28;20201;-67
2023/05/29 03:01:25;;;;;;;6.77;4.37;;;11.90;99.90;;;-141.84;58.09;20248.78;5073788;28;20412;-68
2023/05/29 03:03:53;;;;;;;6.30;4.70;;;11.90;99.90;;;-141.84;58.34;20226.44;5073954;28;20340;-68
2023/05/29 03:06:23;;;;;;;4.70;4.30;;;11.80;99.90;;;-141.84;58.71;20220.34;5074140;28;20200;-68
2023/05/29 03:08:52;;;;;;;5.83;4.27;;;11.80;99.90;;;-141.84;58.80;20167.47;5073317;28;20223;-68
2023/05/29 03:11:23;;;;;;;5.27;4.20;;;11.70;99.90;;;-141.84;58.70;20191.88;5073905;28;20209;-69
2023/05/29 03:13:51;;;;;;;5.27;3.90;;;11.70;99.90;;;-141.84;59.08;20193.91;5073720;28;20621;-68
2023/05/29 03:16:19;;;;;;;5.30;4.10;;;11.70;99.90;;;-141.84;59.03;20202.03;5073598;28;20224;-68
2023/05/29 03:18:48;;;;;;;4.90;4.10;;;11.70;99.90;;;-141.84;58.59;20218.31;5072710;28;20229;-67
2023/05/29 03:21:17;;;;;;;6.83;4.77;;;11.80;99.90;;;-141.84;58.58;20220.34;5073848;28;20596;-68
2023/05/29 03:23:47;;;;;;;5.03;4.07;;;11.80;99.90;;;-141.84;59.25;20185.78;5073920;28;20231;-68
2023/05/29 03:26:15;;;;;;;5.10;4.30;;;11.70;99.90;;;-141.84;59.72;20177.66;5073499;28;20627;-69
2023/05/29 03:28:43;;;;;;;5.27;4.33;;;11.70;99.90;;;-141.84;59.74;20179.69;5073442;28;20689;-69
2023/05/29 03:31:12;;;;;;;5.07;4.30;;;11.70;99.90;;;-141.84;60.19;20147.16;5073136;28;20201;-68
2023/05/29 03:33:40;;;;;;;6.40;4.47;;;11.70;99.90;;;-141.84;60.39;20179.69;5073407;28;20232;-68
2023/05/29 03:36:10;;;;;;;6.77;4.50;;;11.60;99.90;;;-141.84;60.82;20151.22;5073115;28;20314;-68
2023/05/29 03:38:38;;;;;;;4.97;4.43;;;11.60;99.90;;;-141.84;60.90;20151.22;5072484;28;20700;-67
2023/05/29 03:41:08;;;;;;;6.10;4.30;;;11.60;99.90;;;-141.84;60.56;20149.19;5072026;28;20292;-68
2023/05/29 03:43:36;;;;;;;5.67;4.30;;;11.60;99.90;;;-141.84;60.92;20147.16;5072300;28;20291;-69
2023/05/29 03:46:05;;;;;;;5.13;4.63;;;11.60;99.90;;;-141.84;60.51;20145.13;5071997;28;20232;-69
2023/05/29 03:48:33;;;;;;;5.93;4.57;;;11.60;99.90;;;-141.84;60.86;20173.59;5072210;28;20197;-68
2023/05/29 03:51:01;;;;;;;5.97;4.40;;;11.70;99.90;;;-141.84;61.71;20165.44;5071680;28;20573;-68
2023/05/29 03:53:29;;;;;;;6.60;4.60;;;11.70;99.90;;;-141.84;61.55;20183.75;5072427;28;20204;-68
2023/05/29 03:55:58;;;;;;;5.57;4.70;;;11.80;99.90;;;-141.84;61.47;20187.81;5072306;28;20200;-69
2023/05/29 03:58:27;;;;;;;5.97;4.90;;;11.70;99.90;;;-141.84;61.84;20153.25;5072081;28;20644;-67
2023/05/29 04:00:56;;;;;;;5.87;4.37;;;11.70;99.90;;;-141.84;62.06;20167.47;5071899;28;20253;-69
2023/05/29 04:03:24;;;;;;;6.10;4.30;;;11.70;99.90;;;-141.84;61.78;20167.47;5072368;28;20262;-67
2023/05/29 04:05:52;;;;;;;7.57;4.90;;;11.80;99.90;;;-141.84;61.20;20232.53;5072162;28;20197;-67
2023/05/29 04:08:21;;;;;;;6.30;5.17;;;11.90;99.90;;;-141.84;61.58;20230.50;5071738;28;20654;-69
2023/05/29 04:10:53;;;;;;;8.37;4.70;;;11.90;99.90;;;-141.84;61.28;20269.13;5072057;28;20239;-68
2023/05/29 04:13:21;;;;;;;5.90;4.73;;;12.00;99.90;;;-141.84;61.32;20256.91;5072057;28;20224;-69
2023/05/29 04:15:56;;;;;;;6.53;4.60;;;12.10;99.90;;;-141.84;61.50;20240.66;5071204;28;20680;-67
2023/05/29 04:18:34;;;;;;;6.57;4.50;;;12.20;99.90;;;-141.84;61.82;20273.19;5071897;28;20230;-68
2023/05/29 04:21:09;;;;;;;7.03;5.07;;;12.20;99.90;;;-141.84;61.63;20279.28;5071388;28;20706;-68
2023/05/29 04:23:37;;;;;;;7.60;4.80;;;12.30;99.90;;;-141.84;61.94;20297.56;5071799;28;20235;-68
2023/05/29 04:26:06;;;;;;;7.83;4.50;;;12.30;99.90;;;-141.84;62.06;20285.38;5071291;28;20269;-68
2023/05/29 04:28:37;;;;;;;9.20;4.87;;;12.30;99.90;;;-141.84;61.95;20311.78;5071340;28;20368;-68
2023/05/29 04:31:06;;;;;;;6.03;4.63;;;12.40;99.90;;;-141.84;62.34;20285.38;5071169;28;20236;-68
2023/05/29 04:33:36;;;;;;;7.90;4.73;;;12.40;99.90;;;-141.84;62.19;20269.13;5071892;28;20251;-68
2023/05/29 04:36:08;;;;;;;7.07;5.00;;;12.50;99.90;;;-141.84;61.78;20291.47;5071647;28;20274;-68
2023/05/29 04:38:36;;;;;;;5.67;4.77;;;12.60;99.90;;;-141.84;62.13;20269.13;5071438;28;20727;-68
2023/05/29 04:41:08;;;;;;;8.70;5.53;;;12.60;99.90;;;-141.84;61.57;20352.44;5071120;28;20197;-68
2023/05/29 04:43:36;;;;;;;7.37;5.27;;;12.70;99.90;;;-141.84;61.89;20332.13;5071862;28;20192;-68
2023/05/29 04:46:07;;;;;;;6.20;4.87;;;12.70;99.90;;;-141.84;61.57;20387.00;5071040;28;20207;-69
2023/05/29 04:48:35;;;;;;;8.47;4.77;;;12.80;99.90;;;-141.84;61.80;20378.88;5067471;28;20197;-69
2023/05/29 04:51:04;;;;;;;7.77;4.90;;;12.80;99.90;;;-141.84;58.88;20594.34;5051192;28;20309;-70
2023/05/29 04:53:32;;;;;;;7.17;5.10;;;13.60;99.90;;;-141.84;52.79;20944.00;5051164;28;20237;-68
2023/05/29 04:56:00;;;;;;;6.78;4.55;;;14.80;99.90;;;-141.84;48.17;21250.97;5051127;28;20208;-68
2023/05/29 04:58:28;;;;;;;6.18;3.83;;;16.30;99.90;;;-141.84;44.79;21570.19;5050720;28;20618;-69
2023/05/29 05:00:57;;;;;;;6.60;4.60;;;17.40;99.90;;;-141.84;42.83;21820.28;5060762;28;20250;-68
2023/05/29 05:03:27;;;;;;;4.70;4.15;;;18.60;99.90;;;-141.84;39.59;22048.03;5070705;28;20200;-69
2023/05/29 05:05:55;;;;;;;8.32;5.03;;;19.60;99.90;;;-141.84;39.02;22166.00;5070957;28;20232;-68
2023/05/29 05:08:23;;;;;;;8.95;4.50;;;20.20;99.90;;;-141.84;38.66;22267.66;5069869;28;20648;-69
2023/05/29 05:10:52;;;;;;;7.90;4.65;;;20.90;99.90;;;-141.84;38.72;22159.88;5070283;28;20651;-68
2023/05/29 05:13:20;;;;;;;7.32;4.72;;;20.70;99.90;;;-141.84;38.59;22192.44;5070715;28;20543;-68
2023/05/29 05:15:48;;;;;;;6.18;4.82;;;20.50;99.90;;;-141.84;38.77;22263.59;5070308;28;20202;-69
2023/05/29 05:18:17;;;;;;;7.07;4.50;;;21.20;99.90;;;-141.84;39.04;22159.88;5070829;28;20286;-69
2023/05/29 05:20:46;;;;;;;8.25;4.80;;;21.00;99.90;;;-141.84;39.51;22104.97;5070552;28;20677;-68
2023/05/29 05:23:15;;;;;;;5.03;4.53;;;20.40;99.90;;;-141.84;40.41;22115.16;5070513;28;20614;-68
2023/05/29 05:25:43;;;;;;;7.32;4.40;;;19.80;99.90;;;-141.84;39.72;22107.00;5070588;28;20635;-68
2023/05/29 05:28:11;;;;;;;7.88;4.25;;;20.30;99.90;;;-141.84;40.78;22029.75;5070947;28;20231;-69
2023/05/29 05:30:39;;;;;;;6.45;4.85;;;20.30;99.90;;;-141.84;41.41;21826.41;5070258;28;20245;-69
2023/05/29 05:33:07;;;;;;;7.63;5.28;;;19.50;99.90;;;-141.84;45.17;21458.38;5070121;28;20335;-69
2023/05/29 05:35:36;;;;;;;8.18;4.60;;;18.60;99.90;;;-141.84;47.69;21281.47;5070509;28;20205;-68
2023/05/29 05:38:06;;;;;;;6.55;4.65;;;18.00;99.90;;;-141.84;49.84;21135.09;5070100;28;20718;-69
2023/05/29 05:40:34;;;;;;;7.03;4.95;;;17.60;99.90;;;-141.84;51.42;21031.41;5070777;28;20197;-68
2023/05/29 05:43:02;;;;;;;5.38;4.75;;;17.30;99.90;;;-141.84;51.98;21000.91;5073126;28;20288;-70
2023/05/29 05:45:30;;;;;;;9.35;4.70;;;17.00;99.90;;;-141.84;52.87;20937.91;5075199;28;20200;-68
2023/05/29 05:47:59;;;;;;;6.95;5.18;;;16.70;99.90;;;-141.84;53.35;20917.56;5074959;28;20192;-69
2023/05/29 05:50:27;;;;;;;8.50;5.00;;;16.60;99.90;;;-141.84;53.50;20919.59;5055906;28;20203;-69
2023/05/29 05:52:55;;;;;;;8.82;4.93;;;16.50;99.90;;;-141.84;53.24;20946.03;5055392;28;20324;-68
2023/05/29 05:55:26;;;;;;;7.60;4.95;;;16.60;99.90;;;-141.84;53.04;20968.38;5055179;28;20255;-69
2023/05/29 05:57:55;;;;;;;6.28;4.72;;;16.80;99.90;;;-141.84;52.60;21000.91;5055084;28;20303;-69
2023/05/29 06:00:24;;;;;;;9.48;4.82;;;16.90;99.90;;;-141.84;51.35;20994.81;5060584;28;20272;-69
2023/05/29 06:02:52;;;;;;;7.18;4.85;;;17.00;99.90;;;-141.84;51.72;20978.56;5073828;28;20228;-69
2023/05/29 06:05:20;;;;;;;5.70;4.13;;;16.80;99.90;;;-141.84;51.82;21035.47;5074016;28;20204;-67
2023/05/29 06:07:49;;;;;;;7.38;5.20;;;17.00;99.90;;;-141.84;51.28;21000.91;5073545;28;20268;-68
2023/05/29 06:10:17;;;;;;;11.05;5.43;;;16.90;99.90;;;-141.84;51.10;21004.97;5074045;28;20200;-68
2023/05/29 06:12:46;;;;;;;7.80;4.82;;;17.00;99.90;;;-141.84;50.50;21002.94;5073613;28;20638;-69
2023/05/29 06:15:15;;;;;;;8.93;5.20;;;17.10;99.90;;;-141.84;51.01;21027.34;5073980;28;20247;-68
2023/05/29 06:17:43;;;;;;;6.63;4.45;;;17.20;99.90;;;-141.84;50.81;21025.31;5073866;28;20315;-68
2023/05/29 06:20:13;;;;;;;7.88;4.70;;;17.30;99.90;;;-141.84;50.73;21037.50;5074819;28;20200;-68
2023/05/29 06:22:41;;;;;;;8.43;4.88;;;17.30;99.90;;;-141.84;50.38;21078.16;5074821;28;20201;-68
2023/05/29 06:25:10;;;;;;;7.43;5.28;;;17.50;99.90;;;-141.84;50.92;21002.94;5074878;28;20318;-69
2023/05/29 06:27:38;;;;;;;7.72;4.72;;;17.40;99.90;;;-141.84;51.72;20990.75;5074757;28;20227;-68
2023/05/29 06:30:10;;;;;;;7.85;4.93;;;17.10;99.90;;;-141.84;51.52;20984.66;5074615;28;20288;-69
2023/05/29 06:32:38;;;;;;;8.02;4.60;;;17.10;99.90;;;-141.84;51.40;20976.53;5074197;28;20319;-68
2023/05/29 06:35:07;;;;;;;7.68;5.03;;;17.00;99.90;;;-141.84;51.57;21025.31;5074750;28;20205;-69
2023/05/29 06:37:35;;;;;;;6.97;5.30;;;17.10;99.90;;;-141.84;51.15;21041.56;5074286;28;20295;-68
2023/05/29 06:40:06;;;;;;;7.18;4.75;;;17.10;99.90;;;-141.84;51.29;21070.03;5074662;28;20205;-68
2023/05/29 06:42:34;;;;;;;8.45;4.65;;;17.20;99.90;;;-141.84;51.16;21009.03;5062673;28;20657;-68
2023/05/29 06:45:02;;;;;;;10.57;5.32;;;17.30;99.90;;;-141.84;51.30;21047.69;5074107;28;20295;-69
2023/05/29 06:47:31;;;;;;;7.80;5.03;;;17.30;99.90;;;-141.84;51.51;21084.28;5074364;28;20239;-68
2023/05/29 06:50:00;;;;;;;6.82;4.45;;;17.30;99.90;;;-141.84;51.63;21045.63;5074314;28;20201;-69
2023/05/29 06:52:28;;;;;;;7.10;4.90;;;17.50;99.90;;;-141.84;51.09;21139.16;5074456;28;20232;-69
2023/05/29 06:54:56;;;;;;;7.43;4.28;;;17.60;99.90;;;-141.84;49.75;21141.19;5074702;28;20247;-69
2023/05/29 06:57:24;;;;;;;7.57;4.43;;;17.60;99.90;;;-141.84;49.43;21147.28;5074285;28;20740;-68
2023/05/29 06:59:53;;;;;;;7.82;4.55;;;17.80;99.90;;;-141.84;49.41;21106.63;5073854;28;20223;-69
2023/05/29 07:02:21;;;;;;;6.75;4.65;;;17.80;99.90;;;-141.84;49.06;21139.16;5074103;28;20296;-69
2023/05/29 07:04:50;;;;;;;7.38;4.25;;;17.70;99.90;;;-141.84;49.48;21155.44;5073929;28;20208;-68
2023/05/29 07:07:18;;;;;;;7.90;4.88;;;17.90;99.90;;;-141.84;48.91;21147.28;5073814;28;20200;-68
2023/05/29 07:09:47;;;;;;;6.95;4.43;;;17.90;99.90;;;-141.84;49.61;21196.09;5074016;28;20611;-68
2023/05/29 07:12:15;;;;;;;7.07;4.22;;;18.00;99.90;;;-141.84;49.41;21163.56;5073678;28;20236;-69
2023/05/29 07:14:44;;;;;;;7.32;4.80;;;18.00;99.90;;;-141.84;49.24;21208.28;5073784;28;20289;-69
2023/05/29 07:17:12;;;;;;;7.28;4.70;;;18.00;99.90;;;-141.84;48.86;21224.56;5073877;28;20243;-69
2023/05/29 07:19:40;;;;;;;6.55;4.45;;;18.10;99.90;;;-141.84;49.10;21232.69;5073901;28;20224;-68
2023/05/29 07:22:10;;;;;;;6.55;4.47;;;18.20;99.90;;;-141.84;47.91;21297.75;5072791;28;20289;-67
2023/05/29 07:24:38;;;;;;;8.50;4.53;;;18.30;99.90;;;-141.84;47.35;21244.88;5072266;28;20236;-70
2023/05/29 07:27:06;;;;;;;6.60;4.07;;;18.30;99.90;;;-141.84;47.24;21253.00;5072234;28;20245;-68
2023/05/29 07:29:35;;;;;;;5.38;4.45;;;18.30;99.90;;;-141.84;47.32;21269.28;5072164;28;20301;-69
2023/05/29 07:32:03;;;;;;;5.25;4.22;;;18.30;99.90;;;-141.84;47.34;21273.34;5071917;28;20599;-69
2023/05/29 07:34:31;;;;;;;8.68;4.40;;;18.30;99.90;;;-141.84;46.99;21230.66;5071961;28;20319;-68
2023/05/29 07:37:02;;;;;;;10.88;4.72;;;18.30;99.90;;;-141.84;46.75;21269.28;5073449;28;20201;-68
2023/05/29 07:39:33;;;;;;;6.32;4.13;;;18.40;99.90;;;-141.84;47.01;21198.13;5073373;28;20205;-68
2023/05/29 07:42:02;;;;;;;7.22;4.82;;;18.30;99.90;;;-141.84;46.79;21226.59;5073262;28;20217;-68
2023/05/29 07:44:30;;;;;;;4.78;3.90;;;18.40;99.90;;;-141.84;46.85;21248.94;5073172;28;20208;-68
2023/05/29 07:46:58;;;;;;;5.57;3.80;;;18.30;99.90;;;-141.84;47.11;21259.13;5072639;28;20240;-64
2023/05/29 07:49:27;;;;;;;8.15;4.07;;;18.40;99.90;;;-141.84;46.03;21311.97;5061857;28;20205;-64
2023/05/29 07:51:55;;;;;;;6.00;3.75;;;18.60;99.90;;;-141.84;45.31;21316.03;5053139;28;20637;-64
2023/05/29 07:54:23;;;;;;;5.03;3.88;;;18.60;99.90;;;-141.84;45.73;21289.59;5052243;28;20232;-64
2023/05/29 07:56:53;;;;;;;7.20;3.58;;;18.50;99.90;;;-141.84;45.75;21291.66;5052240;28;20720;-64
2023/05/29 07:59:22;;;;;;;7.43;3.88;;;18.70;99.90;;;-141.84;46.03;21305.88;5052405;28;20233;-64
2023/05/29 08:01:50;;;;;;;5.03;3.60;;;18.60;99.90;;;-141.84;45.48;21257.09;5069799;28;20566;-65
2023/05/29 08:04:18;;;;;;;6.32;3.85;;;18.60;99.90;;;-141.84;45.19;21303.84;5071293;28;20291;-63
2023/05/29 08:06:47;;;;;;;6.28;3.60;;;18.60;99.90;;;-141.84;45.43;21277.41;5071138;28;20231;-65
2023/05/29 08:09:15;;;;;;;5.63;3.75;;;18.60;99.90;;;-141.84;44.60;21334.34;5071190;28;20254;-64
2023/05/29 08:11:45;;;;;;;7.32;3.80;;;18.60;99.90;;;-141.84;44.95;21293.69;5071058;28;20305;-65
2023/05/29 08:14:16;;;;;;;5.15;3.58;;;18.70;99.90;;;-141.84;44.93;21356.69;5051108;28;20232;-64
2023/05/29 08:16:44;;;;;;;4.68;3.40;;;18.70;99.90;;;-141.84;45.34;21281.47;5051086;28;20587;-64
2023/05/29 08:19:12;;;;;;;6.07;3.65;;;18.70;99.90;;;-141.84;44.34;21338.41;5050850;28;20489;-66
2023/05/29 08:21:40;;;;;;;4.97;3.83;;;18.80;99.90;;;-141.84;44.19;21366.88;5050762;28;20202;-65
2023/05/29 08:24:09;;;;;;;5.25;3.67;;;18.90;99.90;;;-141.84;44.35;21358.75;5068145;28;20339;-66
2023/05/29 08:26:37;;;;;;;6.78;3.63;;;18.90;99.90;;;-141.84;44.35;21372.97;5070812;28;20883;-65
2023/05/29 08:29:05;;;;;;;5.72;3.70;;;18.90;99.90;;;-141.84;44.85;21381.09;5070588;28;20712;-65
2023/05/29 08:31:35;;;;;;;6.38;3.67;;;18.90;99.90;;;-141.84;44.47;21401.44;5070422;28;20200;-65
2023/05/29 08:34:04;;;;;;;5.97;3.70;;;18.90;99.90;;;-141.84;44.12;21431.94;5067379;28;20232;-65
2023/05/29 08:36:32;;;;;;;6.47;3.75;;;19.10;99.90;;;-141.84;43.62;21478.69;5067171;28;20295;-65
2023/05/29 08:39:00;;;;;;;6.40;3.35;;;19.30;99.90;;;-141.84;42.71;21533.59;5070692;28;20259;-67
2023/05/29 08:41:42;;;;;;;6.00;3.35;;;19.50;99.90;;;-141.84;42.04;21629.16;5062339;28;20288;-66
2023/05/29 08:44:15;;;;;;;6.38;3.38;;;19.70;99.90;;;-141.84;41.33;21732.84;5067267;28;20280;-66
2023/05/29 08:46:46;;;;;;;4.55;2.97;;;20.10;99.90;;;-141.84;41.30;21720.66;5055834;28;20235;-65
2023/05/29 08:49:22;;;;;;;5.72;3.80;;;20.30;99.90;;;-141.84;40.76;21704.38;5069466;28;20219;-59
2023/05/29 08:51:58;;;;;;;5.85;3.05;;;20.40;99.90;;;-141.84;40.64;21747.09;5069140;28;20612;-61
2023/05/29 08:54:27;;;;;;;4.75;3.15;;;20.60;99.90;;;-141.84;40.22;21826.41;5070227;28;20197;-59
2023/05/29 08:56:57;;;;;;;8.05;3.50;;;20.70;99.90;;;-141.84;40.02;21842.66;5068734;28;20291;-61
2023/05/29 08:59:28;;;;;;;5.57;3.60;;;20.80;99.90;;;-141.84;39.61;21946.38;5070423;28;20240;-60
2023/05/29 09:01:58;;;;;;;5.97;3.20;;;21.20;99.90;;;-141.84;39.37;21960.59;5061823;28;20610;-61
2023/05/29 09:04:30;;;;;;;5.25;3.28;;;21.30;99.90;;;-141.84;39.41;21956.53;5068567;28;20649;-59
2023/05/29 09:06:59;;;;;;;4.47;2.85;;;21.40;99.90;;;-141.84;39.37;21978.91;5069857;28;20189;-59
2023/05/29 09:09:28;;;;;;;6.95;3.38;;;21.40;99.90;;;-141.84;39.42;21879.25;5068229;28;20279;-60
2023/05/29 09:11:58;;;;;;;3.90;3.33;;;21.20;99.90;;;-141.84;39.64;21909.75;5069807;28;20648;-58
2023/05/29 09:14:37;;;;;;;5.75;3.53;;;21.30;99.90;;;-141.84;39.62;21897.56;5058079;28;20192;-60
2023/05/29 09:17:08;;;;;;;5.18;3.22;;;21.20;99.90;;;-141.84;39.29;21891.47;5068782;28;20283;-59
2023/05/29 09:19:38;;;;;;;6.28;3.63;;;21.20;99.90;;;-141.84;38.86;22003.31;5069825;28;20212;-60
2023/05/29 09:22:09;;;;;;;5.95;3.40;;;21.50;99.90;;;-141.84;38.94;21936.19;5067773;28;20203;-59
2023/05/29 09:24:39;;;;;;;4.07;3.60;;;21.60;99.90;;;-141.84;39.22;21948.41;5055813;28;20193;-61
2023/05/29 09:27:11;;;;;;;3.88;3.22;;;21.50;99.90;;;-141.84;39.07;22019.56;5070082;28;20222;-61
2023/05/29 09:29:41;;;;;;;7.05;3.63;;;21.60;99.90;;;-141.84;39.23;21950.44;5069958;28;20549;-59
2023/05/29 09:32:12;;;;;;;7.28;3.45;;;21.60;99.90;;;-141.84;39.28;21926.03;5068008;28;20208;-59
2023/05/29 09:34:43;;;;;;;5.68;3.45;;;21.50;99.90;;;-141.84;38.94;21895.53;5053296;28;20224;-58
2023/05/29 09:37:13;;;;;;;5.28;3.42;;;21.50;99.90;;;-141.84;39.18;21930.09;5055998;28;20202;-58
2023/05/29 09:39:47;;;;;;;6.47;3.30;;;21.40;99.90;;;-141.84;39.60;21968.72;5049938;28;20696;-58
2023/05/29 09:42:16;;;;;;;4.32;3.10;;;21.50;99.90;;;-141.84;38.96;21942.31;5048348;28;20213;-60
2023/05/29 09:44:49;;;;;;;5.25;3.50;;;21.50;99.90;;;-141.84;39.42;21926.03;5056290;28;20196;-60
2023/05/29 09:47:20;;;;;;;4.78;3.22;;;21.50;99.90;;;-141.84;39.35;21944.34;5058544;28;20189;-58
2023/05/29 09:49:49;;;;;;;4.88;3.22;;;21.40;99.90;;;-141.84;39.71;21838.59;5035837;28;20187;-59
2023/05/29 09:52:23;;;;;;;5.82;3.30;;;21.30;99.90;;;-141.84;40.09;21846.72;5046176;28;20216;-58
2023/05/29 09:54:53;;;;;;;3.95;2.80;;;21.20;99.90;;;-141.84;39.60;21858.94;5037514;28;20185;-58
2023/05/29 09:57:24;;;;;;;5.57;3.30;;;21.20;99.90;;;-141.84;39.97;21879.25;5049398;28;20193;-58
2023/05/29 09:59:54;;;;;;;5.20;3.20;;;21.20;99.90;;;-141.84;39.24;21885.38;5049547;28;20296;-58
2023/05/29 10:02:24;;;;;;;4.32;2.83;;;21.30;99.90;;;-141.84;39.06;21901.63;5036261;28;20683;-59
2023/05/29 10:04:52;;;;;;;7.13;3.72;;;21.30;99.90;;;-141.84;38.44;21968.72;5058397;28;20194;-59
2023/05/29 10:07:28;;;;;;;4.80;3.33;;;21.60;99.90;;;-141.84;38.65;21962.63;5056601;28;20232;-59
2023/05/29 10:10:03;;;;;;;6.00;3.33;;;21.60;99.90;;;-141.84;38.94;21970.78;5065742;28;20192;-60
2023/05/29 10:12:36;;;;;;;5.65;3.30;;;21.70;99.90;;;-141.84;39.06;21895.53;5051763;28;20193;-58
2023/05/29 10:15:12;;;;;;;4.15;3.08;;;21.60;99.90;;;-141.84;39.12;21877.22;5053951;28;20612;-59